Bei Facebook empfehlenBei Twitter postenGoogle plusPinterest

Das Wetter im Erzgebirge am 06.11.2016

Wetter und Klima am 06.11.2016 Holzhau im Erzgebirge (630m ü.NN)
Letzte gemessene Temperatur und Uhrzeit der Messung23:45:00 Uhr-2.70 °C
Temperatur (Maximum / Höchstwert) und Uhrzeit der Messung13:15:00 Uhr4.30 °C
Temperatur (Minimum / Tiefstwert) und Uhrzeit der Messung23:45:00-2.70 °C
Errechneter Absolutwert der Temperaturschwankungen zwischen Tmin und Tmax des Tages7.00 K
Errechnete Tagesmitteltemperatur2.28750 °C
Gesamt - Niederschlag des Tages (in flüssiger Form)0.00 Liter / m²
Luftdruck (Maximum / Höchstwert) und Zeitpunkt der Messung23:15:00 Uhr997.80 hPa
Luftdruck (Minimum / Tiefstwert) und Zeitpunkt der Messung01:45:00 Uhr995.50 hPa
Errechneter Absolutwert der Luftdruckschwankungen des Tages2.30 hPa
Höchste gemessene Windgeschwindigkeit und Uhrzeit der Messung23:45:00 Uhr0.00 km/h
Errechnete Windhäufigkeit in Relation zu den Messwerten des Tages0.00000 %
Niedrigste Windkühle (Windchill) und Zeitpunkt der Messung23:45:00 Uhr-2.70 °C
Taupunkt (Maximum / Höchstwert) und Uhrzeit der Messung12:15:00 Uhr3.40 °C
Taupunkt (Minimum / Tiefstwert) und Uhrzeit der Messung23:30:00-3.90 °C
Anzahl der automatisch eingelesenen Messwerte 96

Detaillierte Wetter- und Klima- Messwerte für den 06.11.2016 in Holzhau im Erzgebirge (630m ü.NN)
ZeitTemperaturLuftdruckRel. LuftfeuchteWindWindrichtungWindchillTaupunktNiederschlag l/m²
23:45:00-2.70 °C997.70 hPa93.00 %-3.80 °C 
23:30:00-2.60 °C997.70 hPa92.00 %-3.90 °C 
23:15:00-2.40 °C997.80 hPa92.00 %-3.70 °C 
23:00:00-2.00 °C997.70 hPa92.00 %-3.30 °C 
22:45:00-1.90 °C997.30 hPa93.00 %-3.00 °C 
22:30:00-1.90 °C997.60 hPa93.00 %-3.00 °C 
22:15:00-1.90 °C997.30 hPa92.00 %-3.20 °C 
22:00:00-1.60 °C997.70 hPa92.00 %-2.90 °C 
21:45:00-1.40 °C997.70 hPa92.00 %-2.70 °C 
21:30:00-1.20 °C997.40 hPa92.00 %-2.50 °C 
21:15:00-0.90 °C997.40 hPa92.00 %-2.20 °C 
21:00:00-0.60 °C997.20 hPa92.00 %-1.90 °C 
20:45:00-0.30 °C997.20 hPa91.00 %-1.70 °C 
20:30:000.10 °C997.00 hPa91.00 %-1.20 °C 
20:15:000.50 °C996.80 hPa91.00 %-0.80 °C 
20:00:000.80 °C997.00 hPa91.00 %-0.50 °C 
19:45:001.00 °C996.90 hPa91.00 %-0.30 °C 
19:30:001.20 °C997.20 hPa91.00 %-0.10 °C 
19:15:001.30 °C997.20 hPa91.00 %0.00 °C 
19:00:001.30 °C997.10 hPa91.00 %0.00 °C 
18:45:001.50 °C997.20 hPa91.00 %0.20 °C 
18:30:001.60 °C997.00 hPa90.00 %0.10 °C 
18:15:001.60 °C996.70 hPa90.00 %0.10 °C 
18:00:002.00 °C996.50 hPa90.00 %0.50 °C 
17:45:002.50 °C996.30 hPa90.00 %1.00 °C 
17:30:002.80 °C996.20 hPa90.00 %1.30 °C 
17:15:002.90 °C996.20 hPa90.00 %1.40 °C 
17:00:003.00 °C996.30 hPa90.00 %1.50 °C 
16:45:003.10 °C996.60 hPa90.00 %1.60 °C 
16:30:003.30 °C996.70 hPa90.00 %1.80 °C 
16:15:003.40 °C996.40 hPa90.00 %1.90 °C 
16:00:003.40 °C996.10 hPa90.00 %1.90 °C 
15:45:003.50 °C996.20 hPa90.00 %2.00 °C 
15:30:003.40 °C995.90 hPa90.00 %1.90 °C 
15:15:003.50 °C996.00 hPa90.00 %2.00 °C 
15:00:003.80 °C995.90 hPa90.00 %2.30 °C 
14:45:003.80 °C995.70 hPa89.00 %2.20 °C 
14:30:003.60 °C996.00 hPa90.00 %2.10 °C 
14:15:003.60 °C996.00 hPa90.00 %2.10 °C 
14:00:003.80 °C996.20 hPa90.00 %2.30 °C 
13:45:003.90 °C996.10 hPa90.00 %2.40 °C 
13:30:004.10 °C996.00 hPa91.00 %2.80 °C 
13:15:004.30 °C996.00 hPa92.00 %3.10 °C 
13:00:004.10 °C996.00 hPa93.00 %3.10 °C 
12:45:003.90 °C996.10 hPa93.00 %2.90 °C 
12:30:004.00 °C996.40 hPa94.00 %3.10 °C 
12:15:004.10 °C996.50 hPa95.00 %3.40 °C 
12:00:003.90 °C996.60 hPa95.00 %3.20 °C 
11:45:003.90 °C996.50 hPa95.00 %3.20 °C 
11:30:003.60 °C996.90 hPa96.00 %3.00 °C 
11:15:003.60 °C996.90 hPa96.00 %3.00 °C 
11:00:003.60 °C997.00 hPa96.00 %3.00 °C 
10:45:003.50 °C996.80 hPa96.00 %2.90 °C 
10:30:003.20 °C996.30 hPa96.00 %2.60 °C 
10:15:002.90 °C996.10 hPa96.00 %2.30 °C 
10:00:002.70 °C996.00 hPa96.00 %2.10 °C 
09:45:002.60 °C996.00 hPa96.00 %2.00 °C 
09:30:002.20 °C996.30 hPa96.00 %1.60 °C 
09:15:001.80 °C996.30 hPa95.00 %1.10 °C 
09:00:001.60 °C996.30 hPa95.00 %0.90 °C 
08:45:001.60 °C996.10 hPa95.00 %0.90 °C 
08:30:001.50 °C996.00 hPa95.00 %0.80 °C 
08:15:001.60 °C996.00 hPa95.00 %0.90 °C 
08:00:001.60 °C996.00 hPa95.00 %0.90 °C 
07:45:001.60 °C995.60 hPa95.00 %0.90 °C 
07:30:001.80 °C995.70 hPa95.00 %1.10 °C 
07:15:001.90 °C995.90 hPa95.00 %1.20 °C 
07:00:002.10 °C995.90 hPa95.00 %1.40 °C 
06:45:002.30 °C995.80 hPa96.00 %1.70 °C 
06:30:002.60 °C995.90 hPa96.00 %2.00 °C 
06:15:002.80 °C995.80 hPa96.00 %2.20 °C 
06:00:002.90 °C996.10 hPa96.00 %2.30 °C 
05:45:002.90 °C996.10 hPa96.00 %2.30 °C 
05:30:003.00 °C996.20 hPa96.00 %2.40 °C 
05:15:003.10 °C996.00 hPa96.00 %2.50 °C 
05:00:003.10 °C996.10 hPa96.00 %2.50 °C 
04:45:003.10 °C996.20 hPa96.00 %2.50 °C 
04:30:003.10 °C996.40 hPa96.00 %2.50 °C 
04:15:003.10 °C996.00 hPa96.00 %2.50 °C 
04:00:003.20 °C995.70 hPa96.00 %2.60 °C 
03:45:003.30 °C995.90 hPa96.00 %2.70 °C 
03:30:003.40 °C996.10 hPa96.00 %2.80 °C 
03:15:003.50 °C995.90 hPa96.00 %2.90 °C 
03:00:003.60 °C996.00 hPa96.00 %3.00 °C 
02:45:003.60 °C996.50 hPa96.00 %3.00 °C 
02:30:003.60 °C996.00 hPa96.00 %3.00 °C 
02:15:003.60 °C995.60 hPa95.00 %2.90 °C 
02:00:003.60 °C995.70 hPa95.00 %2.90 °C 
01:45:003.60 °C995.50 hPa95.00 %2.90 °C 
01:30:003.60 °C995.70 hPa95.00 %2.90 °C 
01:15:003.60 °C995.80 hPa95.00 %2.90 °C 
01:00:003.80 °C996.00 hPa95.00 %3.10 °C 
00:45:003.80 °C996.10 hPa95.00 %3.10 °C 
00:30:003.90 °C996.10 hPa95.00 %3.20 °C 
00:15:003.90 °C996.10 hPa95.00 %3.20 °C 
00:00:003.90 °C995.90 hPa95.00 %3.20 °C 

Permanenter Link zu dieser Seite: Wetter im Erzgebirge am 06.11.2016
Performance-Info: Die Erstellung der Seite / Statistik(en) / Tabelle(n) erforderte 5 Datenbankserver-Abfrage(n) und dauerte 102 Millisekunden. (Dieser Messwert ist von der Gesamt-Auslastung des Servers abhängig.)
Erzgebirge - Wetter | Erzgebirge - Wetter (Mobilgeräte) | Komplette Klimadatenbank